Time;durP1;ratioP1;P1;durP2;ratioP2;P2;SDS_P1;SDS_P2;PMS_P1;PMS_P2;Temp;Humidity;BMP_temperature;BMP_pressure;BME280_temperature;BME280_humidity;BME280_pressure;Samples;Min_cycle;Max_cycle;Signal;HPM_P1;HPM_P2
2021/05/04 00:01:07;;;;;;;;;;;;;;;18.63;66.76;101165.50;4996106;28;991;-56
2021/05/04 00:03:34;;;;;;;;;;;;;;;18.64;66.67;101180.59;4995616;28;1906;-55
2021/05/04 00:06:00;;;;;;;;;;;;;;;18.63;66.52;101173.53;4996247;28;1892;-55
2021/05/04 00:08:26;;;;;;;;;;;;;;;18.62;66.91;101171.84;4995984;28;1055;-55
2021/05/04 00:10:52;;;;;;;;;;;;;;;18.62;66.85;101177.19;4995709;28;1297;-55
2021/05/04 00:13:18;;;;;;;;;;;;;;;18.62;66.82;101171.84;4995507;28;1056;-55
2021/05/04 00:15:44;;;;;;;;;;;;;;;18.63;66.85;101176.22;4995842;28;1015;-55
2021/05/04 00:18:10;;;;;;;;;;;;;;;18.63;66.73;101173.53;4996132;28;1067;-55
2021/05/04 00:20:37;;;;;;;;;;;;;;;18.61;66.97;101175.47;4995475;28;1099;-55
2021/05/04 00:23:03;;;;;;;;;;;;;;;18.65;66.52;101186.81;4995400;28;1910;-55
2021/05/04 00:25:29;;;;;;;;;;;;;;;18.60;66.70;101173.78;4995416;28;1056;-55
2021/05/04 00:27:55;;;;;;;;;;;;;;;18.62;66.74;101181.69;4995399;28;1076;-56
2021/05/04 00:30:21;;;;;;;;;;;;;;;18.60;66.94;101171.13;4995701;28;1071;-55
2021/05/04 00:32:47;;;;;;;;;;;;;;;18.61;66.88;101166.59;4995337;28;1076;-55
2021/05/04 00:35:13;;;;;;;;;;;;;;;18.59;66.78;101174.75;4995685;28;976;-55
2021/05/04 00:37:40;;;;;;;;;;;;;;;18.59;66.81;101176.59;4995333;28;1063;-55
2021/05/04 00:40:07;;;;;;;;;;;;;;;18.59;66.82;101188.16;4995544;28;1073;-55
2021/05/04 00:42:33;;;;;;;;;;;;;;;18.60;66.79;101179.16;4995515;28;1926;-55
2021/05/04 00:44:59;;;;;;;;;;;;;;;18.58;66.79;101173.06;4995425;28;1159;-55
2021/05/04 00:47:25;;;;;;;;;;;;;;;18.59;66.84;101169.41;4995141;28;1123;-56
2021/05/04 00:49:51;;;;;;;;;;;;;;;18.59;66.78;101176.59;4995419;28;995;-54
2021/05/04 00:52:17;;;;;;;;;;;;;;;18.57;67.31;101176.72;4995412;28;987;-55
2021/05/04 00:54:45;;;;;;;;;;;;;;;18.57;66.97;101171.34;4995389;28;1070;-55
2021/05/04 00:57:12;;;;;;;;;;;;;;;18.56;66.88;101169.66;4995732;28;1067;-55
2021/05/04 00:59:38;;;;;;;;;;;;;;;18.58;66.88;101161.47;4999478;28;984;-55
2021/05/04 01:02:04;;;;;;;;;;;;;;;18.57;66.96;101167.81;4998992;28;1910;-56
2021/05/04 01:04:31;;;;;;;;;;;;;;;18.58;66.81;101181.09;4999372;28;940;-55
2021/05/04 01:06:57;;;;;;;;;;;;;;;18.58;67.11;101186.47;4999391;28;988;-56
2021/05/04 01:09:23;;;;;;;;;;;;;;;18.61;66.66;101188.03;4998967;28;1107;-55
2021/05/04 01:11:50;;;;;;;;;;;;;;;18.58;66.79;101181.09;4998894;28;1323;-54
2021/05/04 01:14:16;;;;;;;;;;;;;;;18.58;66.75;101178.44;4999192;28;1016;-55
2021/05/04 01:16:43;;;;;;;;;;;;;;;18.58;66.97;101185.59;4999461;28;2005;-55
2021/05/04 01:19:09;;;;;;;;;;;;;;;18.59;66.66;101193.50;4998821;28;1072;-55
2021/05/04 01:21:36;;;;;;;;;;;;;;;18.59;66.87;101182.78;4998998;28;992;-54
2021/05/04 01:24:02;;;;;;;;;;;;;;;18.58;66.54;101196.28;4999031;28;1062;-55
2021/05/04 01:26:28;;;;;;;;;;;;;;;18.57;66.80;101179.38;4998974;28;984;-55
2021/05/04 01:28:54;;;;;;;;;;;;;;;18.57;66.77;101176.72;4998625;28;1068;-56
2021/05/04 01:31:20;;;;;;;;;;;;;;;18.56;66.79;101183.06;4998491;28;916;-55
2021/05/04 01:33:46;;;;;;;;;;;;;;;18.56;66.68;101193.78;4999182;28;1869;-56
2021/05/04 01:36:12;;;;;;;;;;;;;;;18.57;66.76;101189.25;4998800;28;948;-55
2021/05/04 01:38:39;;;;;;;;;;;;;;;18.55;66.82;101181.34;4998633;28;992;-56
2021/05/04 01:41:05;;;;;;;;;;;;;;;18.59;66.81;101193.50;4999056;28;1888;-55
2021/05/04 01:43:31;;;;;;;;;;;;;;;18.56;66.76;101187.53;4998597;28;1906;-55
2021/05/04 01:45:57;;;;;;;;;;;;;;;18.55;66.19;101184.00;4998560;28;980;-56
2021/05/04 01:48:23;;;;;;;;;;;;;;;18.56;66.81;101193.78;4998293;28;1060;-55
2021/05/04 01:50:49;;;;;;;;;;;;;;;18.55;66.83;101191.19;4998529;28;988;-55
2021/05/04 01:53:15;;;;;;;;;;;;;;;18.53;66.79;101215.41;4998522;28;1007;-55
2021/05/04 01:55:41;;;;;;;;;;;;;;;18.54;66.82;101205.56;4998165;28;1091;-55
2021/05/04 01:58:07;;;;;;;;;;;;;;;18.52;67.06;101204.81;4998353;28;1058;-54
2021/05/04 02:03:09;;;;;;;;;;;;;;;18.55;66.84;101212.63;5012463;28;1890;-44
2021/05/04 02:05:35;;;;;;;;;;;;;;;18.57;66.81;101218.72;5016701;28;1089;-43
2021/05/04 02:08:01;;;;;;;;;;;;;;;18.54;66.80;101214.44;5016300;28;1111;-44
2021/05/04 02:10:27;;;;;;;;;;;;;;;18.52;67.01;101202.16;5025881;23;3596;-55
2021/05/04 02:12:53;;;;;;;;;;;;;;;18.52;66.86;101194.94;4978133;28;1059;-54
2021/05/04 02:15:19;;;;;;;;;;;;;;;18.54;66.85;101201.03;4978766;28;978;-55
2021/05/04 02:17:45;;;;;;;;;;;;;;;18.52;66.93;101213.69;4978691;28;995;-55
2021/05/04 02:20:12;;;;;;;;;;;;;;;18.54;66.75;101210.91;4978289;28;1055;-55
2021/05/04 02:22:38;;;;;;;;;;;;;;;18.53;66.87;101210.06;4978243;28;1906;-55
2021/05/04 02:25:05;;;;;;;;;;;;;;;18.55;66.81;101224.19;4978588;28;1023;-55
2021/05/04 02:27:31;;;;;;;;;;;;;;;18.51;66.53;101212.00;4978324;28;995;-55
2021/05/04 02:29:58;;;;;;;;;;;;;;;18.52;66.81;101221.72;4978164;28;1051;-54
2021/05/04 02:32:24;;;;;;;;;;;;;;;18.52;66.79;101211.03;4978443;28;1073;-55
2021/05/04 02:34:50;;;;;;;;;;;;;;;18.54;66.54;101217.13;4978309;28;1035;-55
2021/05/04 02:37:16;;;;;;;;;;;;;;;18.54;66.74;101211.75;4978423;28;999;-55
2021/05/04 02:39:42;;;;;;;;;;;;;;;18.53;66.55;101210.06;4977951;28;1114;-55
2021/05/04 02:42:09;;;;;;;;;;;;;;;18.53;66.79;101212.75;4978165;28;1980;-55
2021/05/04 02:44:35;;;;;;;;;;;;;;;18.53;66.36;101218.09;4978129;28;990;-55
2021/05/04 02:47:02;;;;;;;;;;;;;;;18.53;66.73;101218.09;4977911;28;1103;-55
2021/05/04 02:49:28;;;;;;;;;;;;;;;18.53;66.41;101220.78;4978104;28;1012;-55
2021/05/04 02:51:54;;;;;;;;;;;;;;;18.52;66.71;101218.22;4977914;28;1445;-55
2021/05/04 02:54:20;;;;;;;;;;;;;;;18.49;67.04;101213.97;4978007;28;990;-55
2021/05/04 02:56:46;;;;;;;;;;;;;;;18.50;66.87;101215.66;4977632;28;1035;-55
2021/05/04 02:59:12;;;;;;;;;;;;;;;18.51;66.70;101233.44;4977921;28;982;-55
2021/05/04 03:01:38;;;;;;;;;;;;;;;18.51;66.79;101214.69;4980635;28;1494;-54
2021/05/04 03:04:05;;;;;;;;;;;;;;;18.51;66.60;101228.09;4997175;28;1952;-54
2021/05/04 03:06:31;;;;;;;;;;;;;;;18.52;66.62;101243.16;4996828;28;1106;-55
2021/05/04 03:08:58;;;;;;;;;;;;;;;18.51;66.94;101238.78;4997196;28;1079;-55
2021/05/04 03:11:24;;;;;;;;;;;;;;;18.51;66.81;101232.59;4996728;28;1208;-55
2021/05/04 03:13:50;;;;;;;;;;;;;;;18.53;66.71;101230.66;4996988;28;1891;-55
2021/05/04 03:16:16;;;;;;;;;;;;;;;18.51;66.67;101244.16;4996993;28;1063;-55
2021/05/04 03:18:42;;;;;;;;;;;;;;;18.48;66.75;101250.63;4996919;28;988;-54
2021/05/04 03:21:09;;;;;;;;;;;;;;;18.50;67.11;101258.50;4995695;28;1202;-55
2021/05/04 03:23:35;;;;;;;;;;;;;;;18.51;66.78;101254.03;4996783;28;1981;-55
2021/05/04 03:26:01;;;;;;;;;;;;;;;18.50;66.63;101255.81;4996559;28;1040;-55
2021/05/04 03:28:27;;;;;;;;;;;;;;;18.52;66.65;101263.75;4996766;28;1063;-55
2021/05/04 03:30:53;;;;;;;;;;;;;;;18.51;66.74;101268.25;4996718;28;988;-55
2021/05/04 03:33:19;;;;;;;;;;;;;;;18.51;66.35;101276.28;4996422;28;1064;-54
2021/05/04 03:35:45;;;;;;;;;;;;;;;18.50;66.88;101271.88;4996341;28;1095;-55
2021/05/04 03:38:12;;;;;;;;;;;;;;;18.48;66.66;101271.16;4996621;28;1082;-54
2021/05/04 03:40:38;;;;;;;;;;;;;;;18.51;66.80;101270.09;4996532;28;970;-55
2021/05/04 03:43:04;;;;;;;;;;;;;;;18.48;66.67;101263.13;4996411;28;1906;-55
2021/05/04 03:45:30;;;;;;;;;;;;;;;18.49;66.61;101264.84;4996482;28;944;-55
2021/05/04 03:47:57;;;;;;;;;;;;;;;18.53;66.72;101273.50;4996422;28;980;-54
2021/05/04 03:50:23;;;;;;;;;;;;;;;18.56;66.57;101279.47;4996107;28;1126;-55
2021/05/04 03:52:50;;;;;;;;;;;;;;;18.58;66.51;101279.31;4995968;28;1060;-54
2021/05/04 03:55:17;;;;;;;;;;;;;;;18.59;66.49;101278.38;4995882;28;1059;-55
2021/05/04 03:57:43;;;;;;;;;;;;;;;18.63;66.05;101298.59;4996259;28;1031;-55
2021/05/04 04:00:10;;;;;;;;;;;;;;;18.67;66.16;101294.69;4996252;28;1023;-55
2021/05/04 04:02:36;;;;;;;;;;;;;;;18.73;65.93;101293.38;4995729;28;1989;-55
2021/05/04 04:05:02;;;;;;;;;;;;;;;18.83;65.70;101307.78;4995961;28;1895;-55
2021/05/04 04:07:28;;;;;;;;;;;;;;;18.93;65.30;101306.06;4996207;28;939;-55
2021/05/04 04:09:54;;;;;;;;;;;;;;;19.01;65.03;101314.34;4996095;28;999;-55
2021/05/04 04:12:21;;;;;;;;;;;;;;;19.15;64.80;101305.19;4995629;28;1334;-55
2021/05/04 04:14:47;;;;;;;;;;;;;;;19.30;64.53;101311.16;4996130;28;1011;-55
2021/05/04 04:17:13;;;;;;;;;;;;;;;19.52;63.00;101306.69;4995495;28;1114;-55
2021/05/04 04:19:39;;;;;;;;;;;;;;;19.75;62.50;101308.38;4995856;28;983;-54
2021/05/04 04:22:05;;;;;;;;;;;;;;;20.03;61.99;101312.31;4995497;28;1985;-55
2021/05/04 04:24:31;;;;;;;;;;;;;;;20.45;60.98;101316.84;4995736;28;1067;-55
2021/05/04 04:26:57;;;;;;;;;;;;;;;21.06;58.46;101313.38;4995493;28;928;-55
2021/05/04 04:29:23;;;;;;;;;;;;;;;21.62;57.27;101328.97;4995542;28;984;-55
2021/05/04 04:31:49;;;;;;;;;;;;;;;21.94;55.90;101318.94;4995672;28;964;-55
2021/05/04 04:34:15;;;;;;;;;;;;;;;22.02;56.47;101313.69;4995284;28;1095;-55
2021/05/04 04:36:41;;;;;;;;;;;;;;;21.99;56.40;101340.94;4995421;28;1060;-55
2021/05/04 04:39:07;;;;;;;;;;;;;;;21.72;56.21;101337.06;4995656;28;992;-55
2021/05/04 04:41:35;;;;;;;;;;;;;;;21.11;57.95;101315.63;4995552;28;1019;-55
2021/05/04 04:44:01;;;;;;;;;;;;;;;20.71;59.66;101319.13;4995562;28;1980;-55
2021/05/04 04:46:39;;;;;;;;;;;;;;;20.47;60.18;101309.50;4995594;28;948;-55
2021/05/04 04:49:05;;;;;;;;;;;;;;;20.37;60.99;101324.69;4995486;28;1063;-55
2021/05/04 04:51:32;;;;;;;;;;;;;;;20.26;61.46;101318.41;4995535;28;1011;-55
2021/05/04 04:53:57;;;;;;;;;;;;;;;20.19;60.93;101309.19;4995110;28;1079;-55
2021/05/04 04:56:23;;;;;;;;;;;;;;;20.08;61.49;101314.59;4995493;28;984;-55
2021/05/04 04:58:49;;;;;;;;;;;;;;;19.95;61.86;101313.94;4995177;28;1895;-55
2021/05/04 05:01:15;;;;;;;;;;;;;;;19.82;62.26;101317.63;4995022;28;1389;-55
2021/05/04 05:03:42;;;;;;;;;;;;;;;19.75;62.92;101307.53;4995331;28;1981;-55
2021/05/04 05:06:08;;;;;;;;;;;;;;;19.62;63.11;101311.22;4995308;28;1015;-55
2021/05/04 05:08:34;;;;;;;;;;;;;;;19.55;63.27;101298.41;4995445;28;1023;-55
2021/05/04 05:11:00;;;;;;;;;;;;;;;19.53;63.62;101305.75;4995061;28;1163;-55
2021/05/04 05:13:26;;;;;;;;;;;;;;;19.52;63.52;101298.66;4995003;28;1059;-55
2021/05/04 05:15:52;;;;;;;;;;;;;;;19.47;63.69;101307.94;4995300;28;1066;-55
2021/05/04 05:18:18;;;;;;;;;;;;;;;19.48;63.66;101309.66;4995199;28;1018;-55
2021/05/04 05:20:45;;;;;;;;;;;;;;;19.43;63.79;101313.69;4995263;28;1133;-54
2021/05/04 05:23:12;;;;;;;;;;;;;;;19.42;64.14;101315.53;4995172;28;1914;-54
2021/05/04 05:25:38;;;;;;;;;;;;;;;19.41;63.94;101312.97;4995066;28;1070;-55
2021/05/04 05:28:05;;;;;;;;;;;;;;;19.42;63.86;101325.41;4994772;28;1044;-54
2021/05/04 05:30:31;;;;;;;;;;;;;;;19.41;63.93;101323.69;4994838;28;1115;-55
2021/05/04 05:32:56;;;;;;;;;;;;;;;19.41;64.19;101324.53;4994867;28;1032;-54
2021/05/04 05:35:22;;;;;;;;;;;;;;;19.41;64.23;101334.41;4994826;28;1091;-55
2021/05/04 05:37:50;;;;;;;;;;;;;;;19.38;64.51;101329.31;4995072;28;1070;-54
2021/05/04 05:40:16;;;;;;;;;;;;;;;19.38;64.05;101326.63;4995068;28;935;-55
2021/05/04 05:42:42;;;;;;;;;;;;;;;19.38;64.30;101330.16;4994681;28;1902;-55
2021/05/04 05:45:08;;;;;;;;;;;;;;;19.39;64.48;101345.25;4996790;28;992;-55
2021/05/04 05:47:34;;;;;;;;;;;;;;;19.35;64.61;101340.28;4998719;28;1058;-55
2021/05/04 05:50:00;;;;;;;;;;;;;;;19.36;64.27;101334.81;4998396;28;1114;-55
2021/05/04 05:52:26;;;;;;;;;;;;;;;19.34;64.42;101350.16;4998572;28;1075;-55
2021/05/04 05:54:53;;;;;;;;;;;;;;;19.37;64.35;101344.53;4998517;28;1878;-55
2021/05/04 05:57:19;;;;;;;;;;;;;;;19.37;64.34;101331.13;4998169;28;1223;-55
2021/05/04 05:59:45;;;;;;;;;;;;;;;19.38;64.52;101346.25;4998151;28;1271;-55
2021/05/04 06:02:11;;;;;;;;;;;;;;;19.36;64.44;101348.22;4998233;28;1902;-55
2021/05/04 06:04:37;;;;;;;;;;;;;;;19.38;64.35;101346.25;4998254;28;1000;-54
2021/05/04 06:07:03;;;;;;;;;;;;;;;19.38;64.42;101342.72;4998271;28;1093;-55
2021/05/04 06:09:29;;;;;;;;;;;;;;;19.36;64.47;101340.16;4998113;28;975;-55
2021/05/04 06:11:56;;;;;;;;;;;;;;;19.36;64.58;101350.88;4997726;28;1346;-55
2021/05/04 06:14:21;;;;;;;;;;;;;;;19.35;64.60;101341.13;4997762;28;1087;-55
2021/05/04 06:16:47;;;;;;;;;;;;;;;19.35;64.72;101349.16;4998151;28;984;-55
2021/05/04 06:19:13;;;;;;;;;;;;;;;19.36;64.76;101347.34;4997743;28;1040;-55
2021/05/04 06:21:39;;;;;;;;;;;;;;;19.35;64.51;101346.50;4997995;28;1011;-54
2021/05/04 06:24:06;;;;;;;;;;;;;;;19.36;64.56;101347.34;4997876;28;1906;-54
2021/05/04 06:26:32;;;;;;;;;;;;;;;19.34;64.73;101338.56;4997618;28;1115;-55
2021/05/04 06:28:59;;;;;;;;;;;;;;;19.35;64.38;101346.50;4997455;28;1075;-55
2021/05/04 06:31:26;;;;;;;;;;;;;;;19.33;64.59;101337.72;4997528;28;1235;-55
2021/05/04 06:33:52;;;;;;;;;;;;;;;19.34;64.68;101339.44;4997526;28;1258;-55
2021/05/04 06:36:18;;;;;;;;;;;;;;;19.35;64.12;101341.13;4997702;28;1072;-55
2021/05/04 06:38:44;;;;;;;;;;;;;;;19.34;64.93;101336.75;4997402;28;1056;-55
2021/05/04 06:41:10;;;;;;;;;;;;;;;19.35;64.65;101335.75;4997363;28;1048;-55
2021/05/04 06:43:35;;;;;;;;;;;;;;;19.35;64.32;101313.47;4997594;28;1906;-55
2021/05/04 06:46:04;;;;;;;;;;;;;;;19.35;65.10;101330.41;4997386;28;1064;-55
2021/05/04 06:48:30;;;;;;;;;;;;;;;19.36;64.78;101333.91;4997574;28;1039;-55
2021/05/04 06:50:57;;;;;;;;;;;;;;;19.34;64.81;101334.06;4997494;28;1035;-55
2021/05/04 06:53:23;;;;;;;;;;;;;;;19.34;64.86;101317.97;4997433;28;1055;-55
2021/05/04 06:55:49;;;;;;;;;;;;;;;19.34;64.74;101331.38;4997602;28;1074;-55
2021/05/04 06:58:15;;;;;;;;;;;;;;;19.36;64.79;101313.34;4997436;28;1043;-55
2021/05/04 07:00:41;;;;;;;;;;;;;;;19.33;65.33;101316.25;4997017;28;1044;-55
2021/05/04 07:03:08;;;;;;;;;;;;;;;19.33;65.12;101326.16;4997152;28;1989;-56
2021/05/04 07:05:34;;;;;;;;;;;;;;;19.32;64.94;101330.66;4997174;28;1022;-55
2021/05/04 07:08:00;;;;;;;;;;;;;;;19.34;64.92;101312.63;4996944;28;1039;-55
2021/05/04 07:10:26;;;;;;;;;;;;;;;19.32;64.86;101314.56;4997006;28;1018;-55
2021/05/04 07:12:52;;;;;;;;;;;;;;;19.31;65.09;101312.84;4997161;28;1011;-55
2021/05/04 07:15:18;;;;;;;;;;;;;;;19.32;65.04;101297.59;4996751;28;1037;-55
2021/05/04 07:17:44;;;;;;;;;;;;;;;19.31;65.16;101299.44;4996898;28;992;-55
2021/05/04 07:20:12;;;;;;;;;;;;;;;19.33;65.34;101304.69;4996726;28;1048;-55
2021/05/04 07:22:38;;;;;;;;;;;;;;;19.30;65.36;101299.56;4996854;28;1911;-55
2021/05/04 07:25:05;;;;;;;;;;;;;;;19.29;65.29;101298.72;4996781;28;944;-55
2021/05/04 07:27:31;;;;;;;;;;;;;;;19.30;65.38;101295.06;4996875;28;991;-55
2021/05/04 07:29:57;;;;;;;;;;;;;;;19.31;65.20;101299.44;4996440;28;1052;-55
2021/05/04 07:32:23;;;;;;;;;;;;;;;19.30;65.20;101289.72;4996556;28;1004;-55
2021/05/04 07:34:49;;;;;;;;;;;;;;;19.31;65.13;101302.13;4996363;28;1258;-55
2021/05/04 07:37:16;;;;;;;;;;;;;;;19.32;65.10;101293.13;4996611;28;1053;-55
2021/05/04 07:39:43;;;;;;;;;;;;;;;19.32;65.12;101301.16;4996681;28;983;-55
2021/05/04 07:42:10;;;;;;;;;;;;;;;19.30;65.05;101295.06;4996434;28;1043;-55
2021/05/04 07:44:36;;;;;;;;;;;;;;;19.31;65.37;101294.09;4996510;28;1968;-55
2021/05/04 07:47:03;;;;;;;;;;;;;;;19.32;65.11;101266.31;4996251;28;2001;-55
2021/05/04 07:49:33;;;;;;;;;;;;;;;19.32;65.20;101285.06;4996431;28;976;-55
2021/05/04 07:51:59;;;;;;;;;;;;;;;19.32;65.25;101285.06;4996064;28;1048;-55
2021/05/04 07:54:26;;;;;;;;;;;;;;;19.33;65.15;101284.06;4996277;28;993;-55
2021/05/04 07:56:52;;;;;;;;;;;;;;;19.33;64.85;101281.41;4996047;28;1016;-55
2021/05/04 07:59:18;;;;;;;;;;;;;;;19.33;65.12;101268.00;4996282;28;1000;-55
2021/05/04 08:01:44;;;;;;;;;;;;;;;19.32;64.88;101279.72;4996188;28;1397;-55
2021/05/04 08:04:11;;;;;;;;;;;;;;;19.32;64.97;101277.03;4996089;28;1971;-55
2021/05/04 08:06:38;;;;;;;;;;;;;;;19.33;65.15;101268.00;4995644;28;1028;-54
2021/05/04 08:09:04;;;;;;;;;;;;;;;19.33;65.27;101272.50;4995798;28;1000;-55
2021/05/04 08:11:32;;;;;;;;;;;;;;;19.32;65.35;101260.94;4995634;28;1142;-55
2021/05/04 08:13:57;;;;;;;;;;;;;;;19.32;65.12;101254.69;4995655;28;1080;-55
2021/05/04 08:16:23;;;;;;;;;;;;;;;19.33;65.18;101254.59;4995688;28;960;-55
2021/05/04 08:18:52;;;;;;;;;;;;;;;19.32;65.35;101268.97;4995933;28;1066;-55
2021/05/04 08:21:18;;;;;;;;;;;;;;;19.30;65.04;101257.53;4995421;28;1087;-55
2021/05/04 08:23:45;;;;;;;;;;;;;;;19.30;65.29;101256.66;4996307;28;1910;-55
2021/05/04 08:26:11;;;;;;;;;;;;;;;19.32;65.23;101252.00;4996038;28;1974;-55
2021/05/04 08:28:38;;;;;;;;;;;;;;;19.34;64.87;101260.78;4995614;28;1083;-55
2021/05/04 08:31:04;;;;;;;;;;;;;;;19.30;65.51;101249.50;4995752;28;1071;-55
2021/05/04 08:33:30;;;;;;;;;;;;;;;19.30;65.39;101246.81;4995777;28;980;-55
2021/05/04 08:35:56;;;;;;;;;;;;;;;19.29;65.77;101239.72;4995474;28;1127;-55
2021/05/04 08:38:22;;;;;;;;;;;;;;;19.30;65.22;101241.44;4995732;28;1035;-55
2021/05/04 08:40:48;;;;;;;;;;;;;;;19.30;65.58;101241.44;4995640;28;968;-55
2021/05/04 08:43:14;;;;;;;;;;;;;;;19.28;65.58;101246.09;4995274;28;1973;-56
2021/05/04 08:45:42;;;;;;;;;;;;;;;19.28;65.31;101244.25;4995685;28;1072;-55
2021/05/04 08:48:09;;;;;;;;;;;;;;;19.28;65.30;101238.88;4995568;28;1031;-55
2021/05/04 08:50:38;;;;;;;;;;;;;;;19.27;65.42;101244.34;4995628;28;1047;-55
2021/05/04 08:53:05;;;;;;;;;;;;;;;19.30;65.44;101251.28;4995571;28;1059;-55
2021/05/04 08:55:31;;;;;;;;;;;;;;;19.30;65.61;101238.75;4995542;28;1058;-55
2021/05/04 08:57:57;;;;;;;;;;;;;;;19.28;65.59;101235.34;4995518;28;1080;-55
2021/05/04 09:00:23;;;;;;;;;;;;;;;19.27;65.48;101234.47;4995510;28;1999;-55
2021/05/04 09:03:05;;;;;;;;;;;;;;;19.27;65.54;101236.31;4994946;28;1906;-55
2021/05/04 09:05:39;;;;;;;;;;;;;;;19.28;65.44;101238.03;4995040;28;1032;-54
2021/05/04 09:08:09;;;;;;;;;;;;;;;19.29;65.38;101239.72;4995387;28;1039;-55
2021/05/04 09:10:43;;;;;;;;;;;;;;;19.29;65.58;101234.34;4995117;28;1022;-55
2021/05/04 09:13:17;;;;;;;;;;;;;;;19.27;65.60;101237.16;4995407;28;948;-55
2021/05/04 09:21:15;;;;;;;;;;;;;;;19.28;65.43;101232.66;4986082;28;1755;-55
2021/05/04 09:23:43;;;;;;;;;;;;;;;19.28;65.59;101233.50;4999031;28;1906;-55
2021/05/04 09:26:15;;;;;;;;;;;;;;;19.25;65.45;101223.03;4999018;28;1018;-55
2021/05/04 09:28:47;;;;;;;;;;;;;;;19.28;65.43;101227.31;4999074;28;988;-55
2021/05/04 09:31:20;;;;;;;;;;;;;;;19.23;65.54;101219.63;4999410;28;1884;-55
2021/05/04 09:33:47;;;;;;;;;;;;;;;19.25;65.70;101222.19;4999610;28;968;-55
2021/05/04 09:36:34;;;;;;;;;;;;;;;19.26;65.55;101218.53;4998929;28;999;-55
2021/05/04 09:39:00;;;;;;;;;;;;;;;19.24;65.62;101209.78;4998833;28;1006;-55
2021/05/04 09:41:29;;;;;;;;;;;;;;;19.25;65.57;101217.66;4998426;28;1102;-55
2021/05/04 09:43:55;;;;;;;;;;;;;;;19.22;65.45;101217.94;4998639;28;1986;-55
2021/05/04 09:46:39;;;;;;;;;;;;;;;19.23;65.74;101197.31;4998747;28;1031;-55
2021/05/04 09:49:23;;;;;;;;;;;;;;;19.23;65.85;101197.31;4998651;28;983;-55
2021/05/04 09:51:50;;;;;;;;;;;;;;;19.23;65.83;101200.00;4998559;28;1035;-55
2021/05/04 09:54:23;;;;;;;;;;;;;;;19.24;65.71;101199.91;4998377;28;1023;-55
2021/05/04 09:56:50;;;;;;;;;;;;;;;19.24;65.68;101182.97;4998229;28;1048;-55
2021/05/04 09:59:17;;;;;;;;;;;;;;;19.21;65.74;101189.41;4998224;28;1086;-55
2021/05/04 10:01:43;;;;;;;;;;;;;;;19.21;65.60;101189.41;4998091;28;1497;-55
2021/05/04 10:04:10;;;;;;;;;;;;;;;19.23;65.60;101183.94;4998292;28;1981;-55
2021/05/04 10:06:36;;;;;;;;;;;;;;;19.23;65.84;101191.97;4998324;28;983;-55
2021/05/04 10:09:03;;;;;;;;;;;;;;;19.24;65.72;101182.97;4997995;28;1056;-55
2021/05/04 10:11:29;;;;;;;;;;;;;;;19.21;65.98;101181.34;4997882;28;1587;-54
2021/05/04 10:13:56;;;;;;;;;;;;;;;19.21;65.85;101183.19;4997973;28;1012;-55
2021/05/04 10:16:23;;;;;;;;;;;;;;;19.21;65.73;101170.63;4998178;28;968;-55
2021/05/04 10:18:49;;;;;;;;;;;;;;;19.20;65.55;101163.59;4998033;28;1074;-55
2021/05/04 10:21:18;;;;;;;;;;;;;;;19.23;65.96;101170.53;4998092;28;995;-55
2021/05/04 10:23:45;;;;;;;;;;;;;;;19.23;65.79;101170.53;4998419;28;1910;-55
2021/05/04 10:26:15;;;;;;;;;;;;;;;19.21;66.05;101164.44;4997728;28;1028;-55
2021/05/04 10:28:42;;;;;;;;;;;;;;;19.22;65.73;101168.81;4998139;28;1913;-55
2021/05/04 10:31:10;;;;;;;;;;;;;;;19.20;65.77;101157.34;4996890;28;1068;-55
2021/05/04 10:33:40;;;;;;;;;;;;;;;19.20;65.76;101152.88;4997574;28;1068;-55
2021/05/04 10:36:26;;;;;;;;;;;;;;;19.22;66.11;101153.59;4997752;28;1031;-55
2021/05/04 10:38:53;;;;;;;;;;;;;;;19.18;65.52;101136.06;4997129;28;1479;-55
2021/05/04 10:41:20;;;;;;;;;;;;;;;19.20;65.96;101144.81;4997723;28;1070;-55
2021/05/04 10:43:46;;;;;;;;;;;;;;;19.20;65.78;101141.25;4997242;28;1906;-55
2021/05/04 10:46:31;;;;;;;;;;;;;;;19.21;66.08;101127.75;4997285;28;1115;-55
2021/05/04 10:48:57;;;;;;;;;;;;;;;19.19;65.78;101124.34;4997647;28;984;-55
2021/05/04 10:51:41;;;;;;;;;;;;;;;19.21;66.09;101124.22;4997080;28;1060;-55
2021/05/04 10:54:08;;;;;;;;;;;;;;;19.20;65.78;101123.38;4997422;28;1082;-55
2021/05/04 10:56:41;;;;;;;;;;;;;;;19.19;66.00;101115.44;4997096;28;1876;-55
2021/05/04 10:59:08;;;;;;;;;;;;;;;19.19;65.80;101115.44;4997385;28;1051;-55
2021/05/04 11:01:35;;;;;;;;;;;;;;;19.19;66.01;101110.09;4996991;28;1492;-55
2021/05/04 11:04:02;;;;;;;;;;;;;;;19.20;66.08;101111.78;4996892;28;1910;-55
2021/05/04 11:06:44;;;;;;;;;;;;;;;19.21;65.92;101119.69;4997274;28;1149;-54
2021/05/04 11:09:12;;;;;;;;;;;;;;;19.18;66.22;101105.69;4997304;28;1007;-54
2021/05/04 11:11:39;;;;;;;;;;;;;;;19.20;65.95;101115.34;4996550;28;1228;-54
2021/05/04 11:14:06;;;;;;;;;;;;;;;19.20;65.91;101103.72;4996748;28;1056;-54
2021/05/04 11:16:34;;;;;;;;;;;;;;;19.20;66.08;101101.06;4997115;28;1079;-55
2021/05/04 11:19:02;;;;;;;;;;;;;;;19.20;66.07;101101.06;4996666;28;1029;-54
2021/05/04 11:21:38;;;;;;;;;;;;;;;19.20;65.91;101107.28;4996670;28;1274;-55
2021/05/04 11:24:05;;;;;;;;;;;;;;;19.22;65.85;101117.88;4996907;28;1906;-55
2021/05/04 11:26:45;;;;;;;;;;;;;;;19.21;66.08;101108.13;4996597;28;987;-55
2021/05/04 11:29:13;;;;;;;;;;;;;;;19.21;65.83;101095.56;4996834;28;1229;-55
2021/05/04 11:31:40;;;;;;;;;;;;;;;19.22;65.89;101094.59;4996463;28;1024;-55
2021/05/04 11:34:24;;;;;;;;;;;;;;;19.21;66.06;101102.75;4996457;28;1068;-55
2021/05/04 11:36:50;;;;;;;;;;;;;;;19.23;65.76;101095.44;4996813;28;979;-55
2021/05/04 11:39:16;;;;;;;;;;;;;;;19.22;65.86;101093.75;4996407;28;1064;-55
2021/05/04 11:41:53;;;;;;;;;;;;;;;19.24;66.13;101094.47;4996026;28;1086;-55
2021/05/04 11:44:25;;;;;;;;;;;;;;;19.25;65.82;101093.47;4996371;28;1972;-55
2021/05/04 11:46:51;;;;;;;;;;;;;;;19.24;66.05;101087.28;4996133;28;1119;-55
2021/05/04 11:49:23;;;;;;;;;;;;;;;19.23;66.03;101080.19;4996464;28;992;-55
2021/05/04 11:52:02;;;;;;;;;;;;;;;19.24;66.01;101091.81;4996092;28;1028;-54
2021/05/04 11:54:30;;;;;;;;;;;;;;;19.26;65.62;101063.03;4996329;28;1055;-55
2021/05/04 11:56:56;;;;;;;;;;;;;;;19.25;65.75;101072.03;4996063;28;1041;-55
2021/05/04 11:59:25;;;;;;;;;;;;;;;19.23;66.53;101074.00;4995988;28;1087;-55
2021/05/04 12:01:51;;;;;;;;;;;;;;;19.23;65.69;101068.63;4995837;28;1463;-54
2021/05/04 12:04:17;;;;;;;;;;;;;;;19.23;66.07;101052.53;4996167;28;1977;-55
2021/05/04 12:06:46;;;;;;;;;;;;;;;19.21;66.14;101057.19;4996014;28;988;-55
2021/05/04 12:09:13;;;;;;;;;;;;;;;19.21;65.87;101058.03;4995837;28;1028;-55
2021/05/04 12:11:39;;;;;;;;;;;;;;;19.21;66.13;101055.34;4995736;28;1127;-54
2021/05/04 12:14:05;;;;;;;;;;;;;;;19.21;65.96;101065.22;4995636;28;1111;-55
2021/05/04 12:16:32;;;;;;;;;;;;;;;19.22;66.16;101048.19;4996006;28;979;-55
2021/05/04 12:18:58;;;;;;;;;;;;;;;19.24;65.95;101048.91;4995611;28;1096;-55
2021/05/04 12:21:24;;;;;;;;;;;;;;;19.21;65.96;101050.00;4995655;28;1028;-55
2021/05/04 12:23:50;;;;;;;;;;;;;;;19.22;66.00;101040.13;4995814;28;1915;-54
2021/05/04 12:26:18;;;;;;;;;;;;;;;19.22;66.30;101045.50;4995852;28;983;-54
2021/05/04 12:28:45;;;;;;;;;;;;;;;19.19;65.93;101019.78;4995730;28;949;-54
2021/05/04 12:31:13;;;;;;;;;;;;;;;19.20;66.11;101034.03;4995772;28;1974;-55
2021/05/04 12:33:41;;;;;;;;;;;;;;;19.22;65.97;101029.41;4995426;28;1028;-55
2021/05/04 12:36:10;;;;;;;;;;;;;;;19.20;66.08;101031.34;4995456;28;1096;-55
2021/05/04 12:38:40;;;;;;;;;;;;;;;19.21;66.01;101022.34;4995284;28;1040;-55
2021/05/04 12:41:08;;;;;;;;;;;;;;;19.22;65.83;101018.69;4995358;28;1052;-55
2021/05/04 12:43:38;;;;;;;;;;;;;;;19.20;66.42;101018.81;4995144;28;1903;-55
2021/05/04 12:46:13;;;;;;;;;;;;;;;19.19;66.17;101016.25;4995917;28;1975;-55
2021/05/04 12:48:40;;;;;;;;;;;;;;;18.92;66.34;100955.13;4995583;28;976;-55
2021/05/04 12:51:07;;;;;;;;;;;;;;;19.18;65.80;101020.78;4995287;28;1029;-55
2021/05/04 12:53:36;;;;;;;;;;;;;;;19.24;66.25;101014.03;4996495;28;1015;-55
2021/05/04 12:56:06;;;;;;;;;;;;;;;19.20;66.13;101001.84;4999198;28;1040;-55